Time;durP1;ratioP1;P1;durP2;ratioP2;P2;SDS_P1;SDS_P2;PMS_P1;PMS_P2;Temp;Humidity;BMP_temperature;BMP_pressure;BME280_temperature;BME280_humidity;BME280_pressure;Samples;Min_cycle;Max_cycle;Signal;HPM_P1;HPM_P2
2023/11/16 00:00:33;;;;;;;39.55;9.73;;;13.30;96.70;;;;;;4932985;29;20040;-61
2023/11/16 00:03:02;;;;;;;21.63;7.75;;;13.30;96.70;;;;;;4931656;29;20917;-65
2023/11/16 00:05:35;;;;;;;10.95;5.93;;;13.30;96.70;;;;;;4932361;29;20134;-65
2023/11/16 00:08:07;;;;;;;17.35;5.93;;;13.40;96.70;;;;;;4932425;29;20056;-65
2023/11/16 00:10:36;;;;;;;17.60;6.00;;;13.40;96.70;;;;;;4931407;29;20047;-65
2023/11/16 00:13:05;;;;;;;19.05;5.43;;;13.50;96.70;;;;;;4924776;29;20048;-65
2023/11/16 00:15:37;;;;;;;15.25;5.47;;;13.50;96.70;;;;;;4932517;29;20455;-64
2023/11/16 00:18:06;;;;;;;13.15;5.22;;;13.60;96.70;;;;;;4931697;29;20638;-65
2023/11/16 00:20:37;;;;;;;16.27;5.10;;;13.60;96.70;;;;;;4932249;29;20138;-65
2023/11/16 00:23:07;;;;;;;15.80;5.38;;;13.60;96.70;;;;;;4931272;29;20049;-65
2023/11/16 00:25:35;;;;;;;14.65;5.57;;;13.60;96.70;;;;;;4933807;29;20059;-65
2023/11/16 00:28:04;;;;;;;12.73;5.18;;;13.60;96.70;;;;;;4937981;28;20048;-64
2023/11/16 00:30:35;;;;;;;11.10;4.72;;;13.70;96.70;;;;;;4929286;29;20059;-65
2023/11/16 00:33:04;;;;;;;15.48;4.88;;;13.70;96.70;;;;;;4932234;29;20523;-65
2023/11/16 00:35:32;;;;;;;12.65;3.95;;;13.80;96.70;;;;;;4930662;29;20047;-64
2023/11/16 00:38:02;;;;;;;12.90;4.32;;;13.70;96.70;;;;;;4924598;29;20058;-61
2023/11/16 00:40:33;;;;;;;9.00;4.20;;;13.80;96.70;;;;;;4922817;29;20143;-61
2023/11/16 00:43:01;;;;;;;12.13;4.10;;;13.90;96.70;;;;;;4931591;29;20066;-61
2023/11/16 00:45:31;;;;;;;10.60;3.75;;;13.90;96.70;;;;;;4930493;29;20103;-61
2023/11/16 00:48:01;;;;;;;6.45;3.83;;;14.10;96.70;;;;;;4930800;29;20044;-61
2023/11/16 00:50:30;;;;;;;9.35;3.50;;;14.20;96.70;;;;;;4931622;28;20052;-61
2023/11/16 00:52:58;;;;;;;8.25;3.45;;;14.30;96.70;;;;;;4931159;29;20131;-61
2023/11/16 00:55:26;;;;;;;7.80;3.67;;;14.40;96.70;;;;;;4932445;29;20071;-61
2023/11/16 00:57:55;;;;;;;10.02;3.83;;;14.50;96.70;;;;;;4930685;29;20417;-61
2023/11/16 01:00:24;;;;;;;11.40;3.47;;;14.50;96.70;;;;;;4931320;29;20149;-61
2023/11/16 01:02:52;;;;;;;9.30;3.97;;;14.50;96.70;;;;;;4930816;29;20432;-61
2023/11/16 01:05:22;;;;;;;8.10;3.70;;;14.50;96.70;;;;;;4931709;29;20446;-61
2023/11/16 01:07:50;;;;;;;11.55;4.03;;;14.50;96.70;;;;;;4928054;29;20047;-61
2023/11/16 01:10:23;;;;;;;7.65;3.88;;;14.50;96.70;;;;;;4921885;29;20044;-61
2023/11/16 01:12:51;;;;;;;11.75;3.95;;;14.60;96.70;;;;;;4924869;29;20111;-61
2023/11/16 01:15:21;;;;;;;15.43;5.32;;;14.50;96.70;;;;;;4929438;29;20069;-61
2023/11/16 01:17:51;;;;;;;12.85;5.30;;;14.50;96.70;;;;;;4930884;29;20043;-61
2023/11/16 01:20:24;;;;;;;10.63;4.78;;;14.50;96.70;;;;;;4930663;29;20064;-61
2023/11/16 01:23:09;;;;;;;10.55;5.20;;;14.40;96.70;;;;;;4929605;29;20131;-61
2023/11/16 01:25:40;;;;;;;7.20;3.75;;;14.30;96.70;;;;;;4922813;29;20098;-61
2023/11/16 01:28:10;;;;;;;8.93;4.15;;;14.20;96.70;;;;;;4929764;29;20052;-61
2023/11/16 01:30:39;;;;;;;6.53;3.53;;;14.20;96.70;;;;;;4925203;29;20063;-61
2023/11/16 01:33:08;;;;;;;7.28;3.92;;;14.10;96.70;;;;;;4929289;29;20048;-61
2023/11/16 01:35:41;;;;;;;8.40;3.53;;;14.00;96.70;;;;;;4927156;29;20365;-61
2023/11/16 01:38:12;;;;;;;7.95;4.25;;;13.90;96.70;;;;;;4938571;29;20052;-61
2023/11/16 01:40:42;;;;;;;9.52;3.70;;;13.90;96.70;;;;;;4930014;29;20048;-61
2023/11/16 01:43:12;;;;;;;8.23;4.45;;;13.90;96.70;;;;;;4929044;29;20060;-60
2023/11/16 01:45:40;;;;;;;12.90;5.20;;;13.90;96.70;;;;;;4930424;29;20150;-61
2023/11/16 01:48:08;;;;;;;16.08;6.15;;;13.90;96.70;;;;;;4928860;29;20047;-61
2023/11/16 01:50:40;;;;;;;15.32;6.28;;;13.90;96.70;;;;;;4929165;29;20047;-61
2023/11/16 01:53:13;;;;;;;17.48;7.82;;;13.90;96.70;;;;;;4930569;29;20514;-61
2023/11/16 01:55:44;;;;;;;23.52;8.77;;;13.90;96.70;;;;;;4930041;29;20099;-61
2023/11/16 01:58:14;;;;;;;22.63;8.80;;;13.90;96.70;;;;;;4929100;29;20143;-61
2023/11/16 02:00:43;;;;;;;24.75;9.52;;;13.90;96.70;;;;;;4930517;29;20052;-60
2023/11/16 02:03:12;;;;;;;26.00;9.57;;;14.00;96.70;;;;;;4929381;29;20059;-61
2023/11/16 02:05:42;;;;;;;29.13;11.45;;;14.10;96.70;;;;;;4939279;29;20059;-61
2023/11/16 02:08:10;;;;;;;30.15;12.13;;;14.10;96.70;;;;;;4930954;29;20082;-61
2023/11/16 02:10:41;;;;;;;39.97;11.93;;;14.10;96.70;;;;;;4931661;28;20131;-61
2023/11/16 02:13:20;;;;;;;34.58;11.27;;;14.10;96.70;;;;;;4928120;29;20048;-61
2023/11/16 02:15:49;;;;;;;39.92;13.55;;;14.10;96.70;;;;;;4928869;29;20412;-61
2023/11/16 02:18:17;;;;;;;34.58;12.23;;;14.10;96.70;;;;;;4928788;29;20036;-61
2023/11/16 02:20:47;;;;;;;31.85;10.52;;;14.10;96.70;;;;;;4929551;29;20102;-61
2023/11/16 02:23:19;;;;;;;40.00;11.27;;;14.10;96.70;;;;;;4930250;29;20051;-62
2023/11/16 02:25:51;;;;;;;34.53;11.40;;;14.10;96.70;;;;;;4923304;29;20759;-61
2023/11/16 02:28:21;;;;;;;37.88;12.50;;;14.00;96.70;;;;;;4929957;29;20090;-61
2023/11/16 02:30:49;;;;;;;45.22;12.82;;;14.10;96.70;;;;;;4930523;29;20059;-61
2023/11/16 02:33:19;;;;;;;48.38;11.48;;;14.00;96.70;;;;;;4929193;29;20048;-65
2023/11/16 02:35:48;;;;;;;32.72;10.82;;;13.90;96.70;;;;;;4931902;29;20369;-65
2023/11/16 02:38:18;;;;;;;31.15;11.90;;;13.90;96.70;;;;;;4934949;29;20060;-65
2023/11/16 02:40:46;;;;;;;32.58;12.10;;;14.00;96.70;;;;;;4931311;29;20067;-65
2023/11/16 02:43:14;;;;;;;33.13;11.00;;;14.10;96.70;;;;;;4934030;29;20048;-61
2023/11/16 02:45:42;;;;;;;31.05;12.05;;;14.10;96.70;;;;;;4938174;29;20503;-61
2023/11/16 02:48:11;;;;;;;31.10;12.73;;;14.20;96.70;;;;;;4937036;29;20463;-61
2023/11/16 02:50:39;;;;;;;26.55;11.88;;;14.20;96.70;;;;;;4926596;29;20059;-61
2023/11/16 02:53:10;;;;;;;30.67;11.68;;;14.10;96.70;;;;;;4933955;29;20052;-61
2023/11/16 02:55:40;;;;;;;25.95;11.20;;;14.00;96.70;;;;;;4934161;29;20051;-61
2023/11/16 02:58:09;;;;;;;23.90;11.35;;;13.90;96.70;;;;;;4932446;29;20576;-61
2023/11/16 03:00:37;;;;;;;25.63;10.30;;;13.80;96.70;;;;;;4923597;29;20516;-61
2023/11/16 03:03:06;;;;;;;40.05;10.57;;;13.70;96.70;;;;;;4923928;29;20130;-61
2023/11/16 03:05:34;;;;;;;21.00;9.77;;;13.50;96.70;;;;;;4933427;29;20531;-61
2023/11/16 03:08:02;;;;;;;33.70;10.60;;;13.50;96.70;;;;;;4928809;29;20074;-61
2023/11/16 03:10:32;;;;;;;26.42;11.13;;;13.60;96.70;;;;;;4932020;29;20050;-61
2023/11/16 03:13:03;;;;;;;26.23;9.95;;;13.60;96.70;;;;;;4933284;29;20059;-61
2023/11/16 03:15:32;;;;;;;33.13;10.93;;;13.70;96.70;;;;;;4931968;29;20060;-61
2023/11/16 03:18:02;;;;;;;22.17;9.73;;;13.70;96.70;;;;;;4937523;29;20051;-61
2023/11/16 03:20:30;;;;;;;19.70;9.00;;;13.80;96.70;;;;;;4937180;29;20062;-61
2023/11/16 03:22:59;;;;;;;16.50;7.70;;;13.80;96.70;;;;;;4936232;28;20046;-61
2023/11/16 03:25:29;;;;;;;13.38;7.43;;;13.80;96.70;;;;;;4931276;29;20043;-61
2023/11/16 03:27:57;;;;;;;9.82;6.25;;;13.60;96.70;;;;;;4930846;29;20491;-61
2023/11/16 03:30:27;;;;;;;14.07;6.68;;;13.50;96.70;;;;;;4932930;29;20146;-61
2023/11/16 03:32:56;;;;;;;15.82;7.88;;;13.50;96.70;;;;;;4932855;29;20058;-61
2023/11/16 03:35:25;;;;;;;13.20;6.30;;;13.50;96.70;;;;;;4932869;29;20047;-61
2023/11/16 03:37:53;;;;;;;14.18;7.45;;;13.40;96.70;;;;;;4933148;29;20059;-61
2023/11/16 03:40:21;;;;;;;12.77;6.95;;;13.40;96.70;;;;;;4929423;29;20039;-61
2023/11/16 03:42:49;;;;;;;12.90;6.68;;;13.20;96.70;;;;;;4932678;29;20046;-61
2023/11/16 03:45:17;;;;;;;12.88;6.63;;;13.20;96.70;;;;;;4932580;29;20047;-61
2023/11/16 03:47:47;;;;;;;15.82;7.22;;;13.20;96.70;;;;;;4931507;29;20579;-61
2023/11/16 03:50:16;;;;;;;13.90;6.28;;;13.40;96.70;;;;;;4924699;29;20055;-61
2023/11/16 03:52:45;;;;;;;12.05;6.47;;;13.50;96.70;;;;;;4931812;29;20126;-61
2023/11/16 03:55:13;;;;;;;12.57;6.68;;;13.60;96.70;;;;;;4931349;29;20040;-61
2023/11/16 03:57:42;;;;;;;9.57;6.00;;;13.70;96.70;;;;;;4932075;29;20056;-61
2023/11/16 04:00:11;;;;;;;13.82;5.53;;;13.70;96.70;;;;;;4931975;29;20099;-61
2023/11/16 04:02:40;;;;;;;10.50;5.93;;;13.60;96.70;;;;;;4930700;29;20079;-61
2023/11/16 04:05:10;;;;;;;10.90;4.93;;;13.70;96.70;;;;;;4930984;29;20440;-61
2023/11/16 04:07:39;;;;;;;12.60;4.78;;;13.80;96.70;;;;;;4932694;29;20050;-61
2023/11/16 04:10:12;;;;;;;8.55;4.15;;;13.80;96.70;;;;;;4936074;29;20040;-61
2023/11/16 04:12:41;;;;;;;7.03;4.55;;;13.80;96.70;;;;;;4932486;29;20047;-61
2023/11/16 04:15:13;;;;;;;8.35;4.50;;;13.90;96.70;;;;;;4931760;29;20035;-61
2023/11/16 04:17:45;;;;;;;7.75;4.10;;;13.90;96.70;;;;;;4931293;29;20548;-61
2023/11/16 04:20:15;;;;;;;8.00;4.07;;;13.90;96.70;;;;;;4915916;29;20130;-61
2023/11/16 04:22:44;;;;;;;10.27;4.90;;;13.90;96.70;;;;;;4932248;29;20051;-62
2023/11/16 04:25:22;;;;;;;10.48;4.88;;;13.90;96.70;;;;;;4931817;29;20048;-61
2023/11/16 04:27:58;;;;;;;10.27;4.45;;;13.90;96.70;;;;;;4931101;29;20130;-62
2023/11/16 04:30:30;;;;;;;9.85;4.88;;;14.00;96.70;;;;;;4926006;29;20067;-62
2023/11/16 04:32:59;;;;;;;9.90;5.20;;;14.00;96.70;;;;;;4931517;29;20107;-61
2023/11/16 04:35:29;;;;;;;17.63;5.53;;;14.00;96.70;;;;;;4931939;29;20094;-62
2023/11/16 04:37:58;;;;;;;13.57;5.38;;;14.00;96.70;;;;;;4936793;29;20491;-61
2023/11/16 04:40:27;;;;;;;8.98;4.57;;;14.00;96.70;;;;;;4937874;29;20502;-62
2023/11/16 04:42:55;;;;;;;10.15;4.85;;;14.00;96.70;;;;;;4931306;29;21198;-61
2023/11/16 04:45:24;;;;;;;12.60;4.95;;;14.00;96.70;;;;;;4931697;29;20047;-62
2023/11/16 04:47:57;;;;;;;15.68;5.35;;;14.00;96.70;;;;;;4931054;29;20067;-61
2023/11/16 04:50:30;;;;;;;12.27;5.70;;;14.00;96.70;;;;;;4931668;29;20107;-62
2023/11/16 04:53:01;;;;;;;13.52;5.50;;;14.00;96.70;;;;;;4931474;29;20377;-62
2023/11/16 04:55:29;;;;;;;13.60;6.20;;;14.00;96.70;;;;;;4931612;29;20055;-61
2023/11/16 04:57:57;;;;;;;12.85;5.80;;;14.00;96.70;;;;;;4931989;29;20044;-62
2023/11/16 05:00:25;;;;;;;14.60;6.32;;;14.00;96.70;;;;;;4931573;29;20047;-61
2023/11/16 05:02:53;;;;;;;11.77;5.72;;;14.00;96.70;;;;;;4931135;29;20040;-61
2023/11/16 05:05:21;;;;;;;18.95;6.63;;;14.00;96.70;;;;;;4930628;29;20755;-61
2023/11/16 05:07:50;;;;;;;20.55;7.72;;;14.00;96.70;;;;;;4931312;29;20058;-62
2023/11/16 05:10:20;;;;;;;19.73;9.07;;;14.00;96.70;;;;;;4930760;29;20050;-61
2023/11/16 05:12:48;;;;;;;24.08;9.73;;;13.90;96.70;;;;;;4931194;29;20047;-61
2023/11/16 05:15:17;;;;;;;24.50;10.82;;;13.90;96.70;;;;;;4924180;29;20067;-61
2023/11/16 05:17:45;;;;;;;27.42;11.73;;;13.90;96.70;;;;;;4929492;29;20047;-61
2023/11/16 05:20:16;;;;;;;25.02;11.48;;;13.80;96.70;;;;;;4931524;29;20047;-61
2023/11/16 05:22:44;;;;;;;27.65;11.23;;;13.70;96.70;;;;;;4931061;29;20052;-61
2023/11/16 05:25:13;;;;;;;23.40;10.38;;;13.70;96.70;;;;;;4930847;29;20086;-62
2023/11/16 05:27:42;;;;;;;24.27;10.95;;;13.80;96.70;;;;;;4931337;29;20448;-61
2023/11/16 05:30:12;;;;;;;29.85;12.45;;;13.80;96.70;;;;;;4930440;29;20056;-62
2023/11/16 05:32:40;;;;;;;27.52;11.95;;;13.80;96.70;;;;;;4930896;28;20050;-61
2023/11/16 05:35:12;;;;;;;27.67;12.07;;;13.80;96.70;;;;;;4930671;29;20062;-62
2023/11/16 05:37:40;;;;;;;25.55;11.45;;;13.70;96.70;;;;;;4930404;29;20047;-62
2023/11/16 05:40:09;;;;;;;28.75;11.20;;;13.80;96.70;;;;;;4927640;29;20044;-62
2023/11/16 05:42:37;;;;;;;25.95;11.75;;;13.80;96.70;;;;;;4930581;29;20067;-62
2023/11/16 05:45:09;;;;;;;29.75;11.82;;;13.70;96.70;;;;;;4930347;29;20452;-63
2023/11/16 05:47:37;;;;;;;27.58;11.68;;;13.70;96.70;;;;;;4929844;29;20040;-63
2023/11/16 05:50:06;;;;;;;25.05;11.68;;;13.70;96.70;;;;;;4930259;29;20165;-62
2023/11/16 05:52:34;;;;;;;35.38;10.82;;;13.70;96.70;;;;;;4930448;29;20130;-63
2023/11/16 05:55:03;;;;;;;37.30;10.90;;;13.70;96.70;;;;;;4930589;29;20051;-63
2023/11/16 05:57:31;;;;;;;29.58;11.38;;;13.60;96.70;;;;;;4929772;29;20054;-63
2023/11/16 06:00:07;;;;;;;18.40;10.77;;;13.60;96.70;;;;;;4930703;29;20122;-63
2023/11/16 06:02:40;;;;;;;22.50;10.43;;;13.60;96.70;;;;;;4930342;29;20119;-63
2023/11/16 06:05:09;;;;;;;23.08;10.80;;;13.60;96.70;;;;;;4930433;29;20523;-63
2023/11/16 06:07:41;;;;;;;22.70;10.93;;;13.60;96.70;;;;;;4941743;29;20036;-63
2023/11/16 06:10:10;;;;;;;21.17;10.52;;;13.60;96.70;;;;;;4930369;29;20043;-63
2023/11/16 06:12:39;;;;;;;21.17;9.93;;;13.60;96.70;;;;;;4930263;29;20063;-63
2023/11/16 06:15:10;;;;;;;25.20;10.50;;;13.50;96.70;;;;;;4932546;29;20102;-62
2023/11/16 06:17:41;;;;;;;28.83;10.82;;;13.50;96.70;;;;;;4925178;29;20123;-63
2023/11/16 06:20:10;;;;;;;21.70;9.77;;;13.50;96.70;;;;;;4928937;29;20047;-66
2023/11/16 06:22:38;;;;;;;26.05;9.95;;;13.50;96.70;;;;;;4922649;29;20487;-66
2023/11/16 06:25:10;;;;;;;26.27;10.55;;;13.50;96.70;;;;;;4933172;29;20053;-66
2023/11/16 06:27:39;;;;;;;30.90;10.13;;;13.40;96.70;;;;;;4929879;29;20055;-66
2023/11/16 06:30:08;;;;;;;29.40;10.15;;;13.50;96.70;;;;;;4929423;29;20048;-66
2023/11/16 06:32:37;;;;;;;20.42;9.95;;;13.50;96.70;;;;;;4929209;29;20051;-66
2023/11/16 06:35:07;;;;;;;24.63;10.65;;;13.50;96.70;;;;;;4922359;29;20084;-67
2023/11/16 06:37:35;;;;;;;19.52;10.15;;;13.50;96.70;;;;;;4937894;29;20511;-67
2023/11/16 06:40:04;;;;;;;29.52;10.60;;;13.50;96.70;;;;;;4930524;29;20407;-67
2023/11/16 06:42:36;;;;;;;27.58;10.57;;;13.60;96.70;;;;;;4928905;29;20496;-67
2023/11/16 06:45:06;;;;;;;19.63;10.80;;;13.60;96.70;;;;;;4928920;29;20122;-67
2023/11/16 06:47:35;;;;;;;22.05;10.70;;;13.70;96.70;;;;;;4921889;29;20448;-67
2023/11/16 06:50:04;;;;;;;28.48;11.32;;;13.70;96.70;;;;;;4932145;29;20043;-67
2023/11/16 06:52:36;;;;;;;20.45;10.55;;;13.70;96.70;;;;;;4930060;29;20055;-67
2023/11/16 06:55:10;;;;;;;24.58;11.77;;;13.70;96.70;;;;;;4929883;29;20048;-67
2023/11/16 06:57:39;;;;;;;25.05;11.13;;;13.70;96.70;;;;;;4929206;29;20040;-67
2023/11/16 07:00:14;;;;;;;29.40;10.90;;;13.70;96.70;;;;;;4929687;29;20067;-67
2023/11/16 07:02:45;;;;;;;23.70;10.20;;;13.80;96.70;;;;;;4928454;29;20051;-67
2023/11/16 07:05:14;;;;;;;28.35;10.65;;;13.80;96.70;;;;;;4929732;29;20040;-67
2023/11/16 07:07:45;;;;;;;28.05;11.07;;;13.80;96.70;;;;;;4929905;29;20071;-67
2023/11/16 07:10:15;;;;;;;27.17;11.50;;;13.80;96.70;;;;;;4934103;29;20554;-67
2023/11/16 07:12:46;;;;;;;26.75;10.50;;;13.70;96.70;;;;;;4930271;29;20059;-67
2023/11/16 07:15:15;;;;;;;33.95;11.18;;;13.70;96.70;;;;;;4929645;29;20107;-67
2023/11/16 07:17:43;;;;;;;24.33;9.93;;;13.70;96.70;;;;;;4930022;29;20096;-67
2023/11/16 07:20:13;;;;;;;25.20;10.18;;;13.70;96.70;;;;;;4929671;29;20044;-67
2023/11/16 07:22:43;;;;;;;21.30;8.90;;;13.60;96.70;;;;;;4924164;29;20055;-63
2023/11/16 07:25:13;;;;;;;25.80;9.77;;;13.60;96.70;;;;;;4930767;29;20044;-63
2023/11/16 07:27:41;;;;;;;31.13;10.15;;;13.70;96.70;;;;;;4932833;29;20534;-63
2023/11/16 07:30:12;;;;;;;23.75;9.93;;;13.70;96.70;;;;;;4932404;29;20162;-63
2023/11/16 07:32:40;;;;;;;21.48;9.18;;;13.70;96.70;;;;;;4932304;29;20483;-63
2023/11/16 07:35:15;;;;;;;21.42;8.73;;;13.70;96.70;;;;;;4930442;29;20440;-63
2023/11/16 07:37:45;;;;;;;20.05;8.00;;;13.80;96.70;;;;;;4933457;29;20496;-63
2023/11/16 07:40:15;;;;;;;16.70;8.18;;;13.80;96.70;;;;;;4932372;29;20432;-63
2023/11/16 07:42:44;;;;;;;18.15;7.10;;;13.90;96.70;;;;;;4932616;29;20042;-63
2023/11/16 07:45:12;;;;;;;16.50;7.50;;;13.90;96.70;;;;;;4932657;29;20059;-63
2023/11/16 07:47:41;;;;;;;15.23;7.82;;;13.90;96.70;;;;;;4936991;29;20119;-63
2023/11/16 07:50:12;;;;;;;12.13;6.30;;;13.90;96.70;;;;;;4932384;29;20059;-66
2023/11/16 07:52:43;;;;;;;17.65;7.68;;;14.00;96.70;;;;;;4938334;29;20588;-68
2023/11/16 07:55:16;;;;;;;14.90;7.57;;;14.00;96.70;;;;;;4934722;28;20050;-68
2023/11/16 07:57:47;;;;;;;17.95;8.32;;;14.00;96.70;;;;;;4938083;29;20048;-66
2023/11/16 08:00:30;;;;;;;12.23;7.20;;;14.10;96.70;;;;;;4932426;29;20047;-65
2023/11/16 08:05:46;;;;;;;16.15;8.27;;;14.20;96.70;;;;;;4932594;29;20043;-66
2023/11/16 08:08:18;;;;;;;13.60;7.55;;;14.20;96.70;;;;;;4934741;29;20060;-68
2023/11/16 08:10:49;;;;;;;9.27;5.40;;;14.30;96.70;;;;;;4938616;29;20070;-67
2023/11/16 08:13:18;;;;;;;9.00;5.30;;;14.40;96.70;;;;;;4941416;29;20143;-71
2023/11/16 08:15:52;;;;;;;9.23;4.78;;;14.40;96.70;;;;;;4940564;29;20542;-69
2023/11/16 08:18:24;;;;;;;8.00;4.07;;;14.40;96.70;;;;;;4939050;29;20047;-68
2023/11/16 08:20:53;;;;;;;7.70;4.93;;;14.50;96.70;;;;;;4933241;29;20044;-69
2023/11/16 08:23:22;;;;;;;8.68;4.13;;;14.50;96.70;;;;;;4936216;29;20075;-66
2023/11/16 08:25:54;;;;;;;6.45;4.00;;;14.50;96.70;;;;;;4932282;29;20035;-66
2023/11/16 08:28:22;;;;;;;8.57;3.97;;;14.50;96.70;;;;;;4935132;29;20047;-66
2023/11/16 08:30:53;;;;;;;6.75;3.72;;;14.50;96.70;;;;;;4930064;29;20060;-69
2023/11/16 08:33:21;;;;;;;5.05;3.38;;;14.60;96.70;;;;;;4927886;29;20175;-68
2023/11/16 08:35:49;;;;;;;5.85;3.38;;;14.60;96.70;;;;;;4932698;29;20067;-69
2023/11/16 08:38:17;;;;;;;5.30;3.05;;;14.60;96.70;;;;;;4938618;28;20047;-69
2023/11/16 08:40:45;;;;;;;5.82;2.83;;;14.60;96.70;;;;;;4932554;29;20079;-64
2023/11/16 08:43:15;;;;;;;5.25;3.00;;;14.70;96.70;;;;;;4932238;29;20047;-67
2023/11/16 08:45:45;;;;;;;4.45;2.85;;;14.70;96.70;;;;;;4932537;29;20051;-67
2023/11/16 08:48:16;;;;;;;5.63;3.40;;;14.70;96.70;;;;;;4932498;29;20487;-67
2023/11/16 08:50:50;;;;;;;5.00;3.13;;;14.80;96.70;;;;;;4931606;29;20433;-67
2023/11/16 08:53:21;;;;;;;4.30;2.58;;;14.70;96.70;;;;;;4931381;29;20044;-66
2023/11/16 08:55:49;;;;;;;3.45;2.70;;;14.70;96.70;;;;;;4934558;29;20055;-67
2023/11/16 08:58:21;;;;;;;6.38;2.78;;;14.70;96.70;;;;;;4931476;29;20048;-66
2023/11/16 09:00:49;;;;;;;6.05;3.70;;;14.70;96.70;;;;;;4931032;29;20571;-66
2023/11/16 09:03:18;;;;;;;6.18;2.88;;;14.70;96.70;;;;;;4931366;29;20043;-67
2023/11/16 09:05:47;;;;;;;12.07;4.72;;;14.80;96.70;;;;;;4930873;29;20103;-66
2023/11/16 09:08:19;;;;;;;13.55;4.50;;;14.80;96.70;;;;;;4931570;29;20058;-66
2023/11/16 09:10:47;;;;;;;7.57;3.70;;;14.90;96.70;;;;;;4931532;29;20047;-66
2023/11/16 09:13:19;;;;;;;12.60;3.55;;;14.90;96.70;;;;;;4931488;29;20890;-66
2023/11/16 09:15:49;;;;;;;11.50;3.47;;;14.90;96.70;;;;;;4931482;29;20058;-66
2023/11/16 09:18:17;;;;;;;7.90;3.42;;;14.90;96.70;;;;;;4930929;29;20051;-66
2023/11/16 09:20:46;;;;;;;7.05;4.03;;;14.90;96.70;;;;;;4932037;29;20050;-66
2023/11/16 09:23:14;;;;;;;5.90;3.78;;;14.90;96.70;;;;;;4931670;29;20047;-66
2023/11/16 09:25:44;;;;;;;6.22;3.47;;;14.90;96.70;;;;;;4931955;29;20058;-66
2023/11/16 09:28:13;;;;;;;8.35;4.00;;;14.90;96.70;;;;;;4932128;29;20048;-71
2023/11/16 09:30:43;;;;;;;6.78;3.72;;;14.90;96.70;;;;;;4931143;29;20099;-72
2023/11/16 09:33:12;;;;;;;5.57;3.85;;;14.90;96.70;;;;;;4931726;29;20051;-69
2023/11/16 09:35:41;;;;;;;7.75;3.92;;;14.90;96.70;;;;;;4925838;29;20036;-70
2023/11/16 09:38:09;;;;;;;6.72;3.85;;;14.90;96.70;;;;;;4930565;29;20043;-69
2023/11/16 09:40:38;;;;;;;3.88;3.17;;;14.90;96.70;;;;;;4930923;29;20040;-75
2023/11/16 09:43:20;;;;;;;6.35;3.42;;;14.90;96.70;;;;;;4930003;29;20407;-69
2023/11/16 09:45:52;;;;;;;7.10;3.65;;;14.80;96.70;;;;;;4929277;29;20047;-70
2023/11/16 09:48:20;;;;;;;6.35;3.67;;;14.80;96.70;;;;;;4928586;29;20537;-70
2023/11/16 09:50:50;;;;;;;6.63;3.70;;;14.90;96.70;;;;;;4927396;29;20412;-69
2023/11/16 09:53:23;;;;;;;4.93;3.10;;;15.00;96.70;;;;;;4930358;29;20043;-70
2023/11/16 09:56:03;;;;;;;4.63;3.35;;;15.00;96.70;;;;;;4929795;29;20054;-69
2023/11/16 09:58:36;;;;;;;10.57;3.58;;;15.10;96.70;;;;;;4930554;29;20047;-66
2023/11/16 10:01:10;;;;;;;8.00;3.05;;;15.10;96.70;;;;;;4929907;29;20063;-66
2023/11/16 10:03:40;;;;;;;6.72;3.70;;;15.10;96.70;;;;;;4929542;29;20554;-66
2023/11/16 10:06:10;;;;;;;6.30;3.63;;;15.10;96.70;;;;;;4929904;29;20035;-66
2023/11/16 10:08:40;;;;;;;5.55;3.78;;;15.10;96.70;;;;;;4927557;29;20399;-66
2023/11/16 10:11:09;;;;;;;8.30;3.67;;;15.20;96.70;;;;;;4930298;29;20051;-66
2023/11/16 10:13:39;;;;;;;7.95;3.70;;;15.20;96.70;;;;;;4930115;29;20458;-67
2023/11/16 10:16:11;;;;;;;6.57;3.85;;;15.30;96.70;;;;;;4930317;29;20086;-67
2023/11/16 10:18:39;;;;;;;8.25;3.83;;;15.30;96.70;;;;;;4929667;29;20035;-67
2023/11/16 10:21:08;;;;;;;7.05;3.72;;;15.30;96.70;;;;;;4929747;29;20110;-67
2023/11/16 10:23:38;;;;;;;6.30;4.40;;;15.40;96.70;;;;;;4925712;29;20070;-67
2023/11/16 10:26:10;;;;;;;8.68;3.95;;;15.50;96.70;;;;;;4921412;29;20055;-69
2023/11/16 10:28:41;;;;;;;6.43;3.42;;;15.50;96.70;;;;;;4926984;29;20047;-67
2023/11/16 10:31:15;;;;;;;7.68;3.83;;;15.50;96.70;;;;;;4930510;29;20361;-67
2023/11/16 10:33:45;;;;;;;8.05;4.28;;;15.50;96.70;;;;;;4931206;29;20044;-68
2023/11/16 10:36:14;;;;;;;8.15;4.75;;;15.50;96.70;;;;;;4930490;29;20548;-66
2023/11/16 10:38:45;;;;;;;8.50;4.97;;;15.50;96.70;;;;;;4930446;29;20054;-66
2023/11/16 10:41:14;;;;;;;13.65;6.47;;;15.50;96.70;;;;;;4930685;29;20055;-68
2023/11/16 10:43:44;;;;;;;8.95;5.80;;;15.50;96.70;;;;;;4930377;29;20052;-70
2023/11/16 10:46:14;;;;;;;9.88;6.03;;;15.50;96.70;;;;;;4930753;29;20040;-70
2023/11/16 10:48:43;;;;;;;8.13;5.88;;;15.50;96.70;;;;;;4930802;29;20066;-71
2023/11/16 10:51:13;;;;;;;9.05;7.18;;;15.60;96.70;;;;;;4943596;28;20051;-67
2023/11/16 10:53:42;;;;;;;8.88;5.88;;;15.50;96.70;;;;;;4930618;29;20142;-67
2023/11/16 10:56:12;;;;;;;11.10;7.18;;;15.60;96.70;;;;;;4930553;29;20048;-66
2023/11/16 10:58:42;;;;;;;11.38;7.00;;;15.60;96.70;;;;;;4930204;29;20067;-67
2023/11/16 11:01:17;;;;;;;11.30;7.32;;;15.60;96.70;;;;;;4938813;28;20040;-66
2023/11/16 11:03:48;;;;;;;10.55;8.00;;;15.60;96.70;;;;;;4926067;29;20076;-66
2023/11/16 11:06:18;;;;;;;11.68;8.02;;;15.70;96.70;;;;;;4934375;29;20050;-66
2023/11/16 11:08:48;;;;;;;13.73;10.02;;;15.70;96.70;;;;;;4933732;29;20051;-66
2023/11/16 11:11:24;;;;;;;15.82;11.90;;;15.70;96.70;;;;;;4933726;29;20411;-66
2023/11/16 11:13:55;;;;;;;13.50;10.07;;;15.60;96.70;;;;;;4933762;29;20087;-66
2023/11/16 11:16:26;;;;;;;16.70;10.65;;;15.60;96.70;;;;;;4930715;29;20625;-67
2023/11/16 11:18:57;;;;;;;13.82;10.23;;;15.70;96.70;;;;;;4932563;29;20044;-66
2023/11/16 11:21:27;;;;;;;13.68;9.25;;;15.70;96.70;;;;;;4933010;29;20488;-66
2023/11/16 11:23:59;;;;;;;14.95;11.45;;;15.80;96.70;;;;;;4932799;29;20043;-66
2023/11/16 11:26:39;;;;;;;12.00;9.95;;;15.80;96.70;;;;;;4931410;29;20618;-70
2023/11/16 11:29:08;;;;;;;17.63;10.00;;;15.80;96.70;;;;;;4931477;29;20052;-70
2023/11/16 11:31:46;;;;;;;14.48;10.05;;;15.80;96.70;;;;;;4933164;29;20047;-70
2023/11/16 11:34:15;;;;;;;13.85;10.27;;;15.80;96.70;;;;;;4932845;29;20048;-70
2023/11/16 11:36:44;;;;;;;13.30;9.70;;;15.80;96.70;;;;;;4926766;29;20048;-70
2023/11/16 11:39:14;;;;;;;13.82;10.10;;;15.90;96.70;;;;;;4937675;29;20051;-71
2023/11/16 11:41:56;;;;;;;17.35;10.13;;;15.90;96.70;;;;;;4937411;28;20103;-70
2023/11/16 11:44:26;;;;;;;15.98;9.80;;;15.90;96.70;;;;;;4932214;29;20040;-69
2023/11/16 11:46:56;;;;;;;14.25;9.43;;;15.90;96.70;;;;;;4931562;29;20051;-69
2023/11/16 11:49:25;;;;;;;15.23;10.60;;;15.90;96.70;;;;;;4931581;29;20047;-70
2023/11/16 11:51:54;;;;;;;14.63;8.85;;;16.00;96.70;;;;;;4931421;29;20043;-69
2023/11/16 11:54:33;;;;;;;10.68;8.48;;;16.00;96.70;;;;;;4932671;29;20110;-70
2023/11/16 11:57:04;;;;;;;15.55;8.85;;;16.00;96.70;;;;;;4924950;29;20127;-69
2023/11/16 11:59:35;;;;;;;16.58;9.98;;;16.00;96.70;;;;;;4932122;29;20507;-69
2023/11/16 12:02:09;;;;;;;16.48;10.38;;;15.90;96.70;;;;;;4935556;29;20048;-70
2023/11/16 12:04:39;;;;;;;16.15;10.10;;;15.90;96.70;;;;;;4931263;29;20044;-70
2023/11/16 12:07:09;;;;;;;14.95;10.23;;;15.80;96.70;;;;;;4940642;29;20460;-70
2023/11/16 12:09:38;;;;;;;16.00;10.43;;;15.80;96.70;;;;;;4931398;29;21145;-69
2023/11/16 12:12:09;;;;;;;16.95;10.75;;;15.80;96.70;;;;;;4932357;29;20119;-70
2023/11/16 12:14:38;;;;;;;12.98;9.80;;;15.80;96.70;;;;;;4932097;29;20500;-70
2023/11/16 12:17:17;;;;;;;15.32;9.88;;;15.90;96.70;;;;;;4940638;29;20043;-70
2023/11/16 12:19:48;;;;;;;23.05;15.25;;;16.00;96.70;;;;;;4925463;29;20047;-70
2023/11/16 12:22:19;;;;;;;18.48;13.27;;;16.10;96.70;;;;;;4935704;29;20039;-69
2023/11/16 12:24:51;;;;;;;19.92;13.55;;;16.00;96.70;;;;;;4940746;28;20032;-69
2023/11/16 12:27:21;;;;;;;19.65;13.13;;;15.90;96.70;;;;;;4932458;29;20574;-70
2023/11/16 12:29:56;;;;;;;15.90;12.10;;;15.90;96.70;;;;;;4938620;29;20142;-70
2023/11/16 12:32:26;;;;;;;21.57;14.23;;;16.00;96.70;;;;;;4932452;29;20047;-70
2023/11/16 12:34:54;;;;;;;16.52;12.65;;;15.90;96.70;;;;;;4932436;29;20054;-70
2023/11/16 12:37:23;;;;;;;18.48;11.55;;;16.00;96.70;;;;;;4931135;29;20063;-70
2023/11/16 12:39:51;;;;;;;15.88;13.13;;;16.20;96.70;;;;;;4940025;29;20071;-70
2023/11/16 12:42:22;;;;;;;16.52;12.57;;;16.30;96.70;;;;;;4931712;29;20514;-70
2023/11/16 12:44:52;;;;;;;17.42;13.60;;;16.30;96.70;;;;;;4931855;29;20119;-70
2023/11/16 12:47:21;;;;;;;19.45;13.20;;;16.40;96.70;;;;;;4932563;29;20039;-70
2023/11/16 12:49:52;;;;;;;21.45;14.32;;;16.40;96.70;;;;;;4931885;29;20068;-70
2023/11/16 12:52:21;;;;;;;23.13;12.60;;;16.30;96.70;;;;;;4931793;29;20062;-69